createdAt,value
2018-09-29T00:01:12.164Z,93.30
2018-09-29T00:03:47.692Z,93.40
2018-09-29T00:06:23.562Z,93.50
2018-09-29T00:08:58.897Z,93.60
2018-09-29T00:11:34.759Z,94.30
2018-09-29T00:14:11.609Z,95.20
2018-09-29T00:16:47.313Z,95.60
2018-09-29T00:19:22.515Z,96.00
2018-09-29T00:21:58.198Z,96.30
2018-09-29T00:24:33.904Z,96.50
2018-09-29T00:27:09.505Z,96.60
2018-09-29T00:29:45.162Z,96.90
2018-09-29T00:32:21.042Z,96.80
2018-09-29T00:34:56.553Z,97.10
2018-09-29T00:37:32.951Z,97.00
2018-09-29T00:40:08.396Z,97.10
2018-09-29T00:42:45.040Z,97.10
2018-09-29T00:45:20.812Z,97.10
2018-09-29T00:47:56.389Z,97.20
2018-09-29T00:50:32.214Z,97.40
2018-09-29T00:53:08.069Z,97.40
2018-09-29T00:55:44.548Z,97.30
2018-09-29T00:58:20.236Z,97.30
2018-09-29T01:00:56.013Z,97.60
2018-09-29T01:03:31.349Z,97.70
2018-09-29T01:06:07.313Z,97.80
2018-09-29T01:08:43.345Z,97.80
2018-09-29T01:11:18.622Z,97.80
2018-09-29T01:13:54.458Z,97.90
2018-09-29T01:16:30.085Z,97.90
2018-09-29T01:19:05.755Z,98.10
2018-09-29T01:21:41.799Z,98.20
2018-09-29T01:24:17.257Z,98.30
2018-09-29T01:26:52.740Z,98.40
2018-09-29T01:29:28.792Z,98.30
2018-09-29T01:32:04.262Z,98.30
2018-09-29T01:34:40.272Z,98.30
2018-09-29T01:37:15.965Z,98.40
2018-09-29T01:39:51.457Z,98.50
2018-09-29T01:42:26.970Z,98.60
2018-09-29T01:45:02.719Z,98.70
2018-09-29T01:47:38.508Z,98.90
2018-09-29T01:50:14.214Z,99.00
2018-09-29T01:52:50.460Z,99.10
2018-09-29T01:55:26.746Z,99.30
2018-09-29T01:58:02.561Z,99.40
2018-09-29T02:00:38.913Z,99.30
2018-09-29T02:03:14.862Z,99.40
2018-09-29T02:05:50.737Z,99.20
2018-09-29T02:08:26.372Z,99.30
2018-09-29T02:11:02.649Z,99.40
2018-09-29T02:13:38.739Z,99.40
2018-09-29T02:16:14.577Z,99.40
2018-09-29T02:18:51.223Z,99.50
2018-09-29T02:21:26.880Z,99.60
2018-09-29T02:24:02.769Z,99.70
2018-09-29T02:26:38.463Z,99.80
2018-09-29T02:29:14.269Z,99.80
2018-09-29T02:31:49.939Z,99.60
2018-09-29T02:34:25.701Z,99.90
2018-09-29T02:37:01.167Z,99.40
2018-09-29T02:39:37.052Z,99.30
2018-09-29T02:42:12.774Z,99.50
2018-09-29T02:44:48.528Z,99.50
2018-09-29T02:47:24.193Z,99.30
2018-09-29T02:50:00.218Z,99.30
2018-09-29T02:52:35.876Z,99.10
2018-09-29T02:55:11.734Z,99.10
2018-09-29T02:57:47.394Z,99.20
2018-09-29T03:00:22.865Z,99.20
2018-09-29T03:03:02.564Z,99.10
2018-09-29T03:05:38.173Z,99.00
2018-09-29T03:08:13.997Z,99.00
2018-09-29T03:10:49.941Z,99.10
2018-09-29T03:13:25.681Z,99.10
2018-09-29T03:16:01.083Z,99.20
2018-09-29T03:18:36.972Z,99.20
2018-09-29T03:21:12.362Z,99.50
2018-09-29T03:23:48.725Z,99.50
2018-09-29T03:26:24.040Z,99.60
2018-09-29T03:28:59.797Z,99.70
2018-09-29T03:31:35.464Z,99.90
2018-09-29T03:34:11.252Z,99.80
2018-09-29T03:36:47.449Z,99.80
2018-09-29T03:39:24.408Z,99.90
2018-09-29T03:42:00.935Z,99.90
2018-09-29T03:44:37.891Z,99.90
2018-09-29T03:47:15.266Z,99.90
2018-09-29T03:49:51.901Z,99.90
2018-09-29T03:52:30.628Z,99.90
2018-09-29T03:55:06.083Z,99.90
2018-09-29T03:57:43.742Z,99.90
2018-09-29T04:00:19.826Z,99.90
2018-09-29T04:02:55.388Z,99.90
2018-09-29T04:05:32.500Z,99.90
2018-09-29T04:08:08.968Z,99.90
2018-09-29T04:10:45.906Z,99.90
2018-09-29T04:13:22.537Z,99.90
2018-09-29T04:16:03.623Z,99.90
2018-09-29T04:18:41.608Z,99.90
2018-09-29T04:21:18.534Z,99.90
2018-09-29T04:23:54.644Z,99.90
2018-09-29T04:26:31.280Z,99.90
2018-09-29T04:29:06.965Z,99.90
2018-09-29T04:31:43.821Z,99.90
2018-09-29T04:34:20.185Z,99.90
2018-09-29T04:36:55.715Z,99.90
2018-09-29T04:39:33.258Z,99.90
2018-09-29T04:42:11.942Z,99.90
2018-09-29T04:44:48.192Z,99.90
2018-09-29T04:47:25.920Z,99.90
2018-09-29T04:50:02.633Z,99.90
2018-09-29T04:52:39.873Z,99.90
2018-09-29T04:55:18.682Z,99.90
2018-09-29T04:57:55.358Z,99.90
2018-09-29T05:00:32.554Z,99.90
2018-09-29T05:03:10.751Z,99.90
2018-09-29T05:05:46.862Z,99.90
2018-09-29T05:08:24.549Z,99.90
2018-09-29T05:11:00.710Z,99.90
2018-09-29T05:13:36.337Z,99.90
2018-09-29T05:16:11.969Z,99.90
2018-09-29T05:18:47.794Z,99.90
2018-09-29T05:23:58.951Z,99.90
2018-09-29T05:26:34.623Z,99.90
2018-09-29T05:29:10.617Z,99.90
2018-09-29T05:31:46.073Z,99.90
2018-09-29T05:34:21.564Z,99.90
2018-09-29T05:39:34.063Z,99.90
2018-09-29T05:42:09.870Z,99.90
2018-09-29T05:44:46.147Z,99.90
2018-09-29T05:47:22.301Z,99.90
2018-09-29T05:49:57.930Z,99.90
2018-09-29T05:52:33.554Z,99.90
2018-09-29T05:55:09.184Z,99.90
2018-09-29T05:57:44.842Z,99.90
2018-09-29T06:02:56.012Z,99.90
2018-09-29T06:05:32.002Z,99.90
2018-09-29T06:08:07.248Z,99.90
2018-09-29T06:10:43.194Z,99.90
2018-09-29T06:13:18.593Z,99.90
2018-09-29T06:15:54.349Z,99.90
2018-09-29T06:18:30.176Z,99.90
2018-09-29T06:21:05.742Z,99.90
2018-09-29T06:23:41.573Z,99.90
2018-09-29T06:26:17.200Z,99.90
2018-09-29T06:28:53.151Z,99.90
2018-09-29T06:31:28.657Z,99.90
2018-09-29T06:34:04.230Z,99.90
2018-09-29T06:36:40.311Z,99.90
2018-09-29T06:39:15.912Z,99.90
2018-09-29T06:41:51.080Z,99.90
2018-09-29T06:44:27.016Z,99.90
2018-09-29T06:47:02.665Z,99.90
2018-09-29T06:49:38.537Z,99.90
2018-09-29T06:52:15.548Z,99.90
2018-09-29T06:54:51.465Z,99.90
2018-09-29T06:57:26.878Z,99.90
2018-09-29T07:00:02.629Z,99.90
2018-09-29T07:02:38.413Z,99.90
2018-09-29T07:05:14.229Z,99.90
2018-09-29T07:07:49.370Z,98.50
2018-09-29T07:10:27.000Z,96.50
2018-09-29T07:13:02.613Z,95.30
2018-09-29T07:15:37.960Z,94.00
2018-09-29T07:18:13.656Z,93.50
2018-09-29T07:20:49.618Z,93.10
2018-09-29T07:23:25.715Z,92.10
2018-09-29T07:26:00.844Z,91.60
2018-09-29T07:28:36.609Z,91.10
2018-09-29T07:31:12.356Z,90.40
2018-09-29T07:33:47.927Z,89.20
2018-09-29T07:36:23.701Z,87.90
2018-09-29T07:38:59.434Z,86.20
2018-09-29T07:41:35.589Z,85.80
2018-09-29T07:44:11.778Z,85.00
2018-09-29T07:46:47.679Z,84.60
2018-09-29T07:49:23.379Z,84.10
2018-09-29T07:51:58.780Z,83.70
2018-09-29T07:54:34.423Z,82.40
2018-09-29T07:57:10.299Z,81.10
2018-09-29T07:59:46.171Z,80.60
2018-09-29T08:02:21.605Z,80.40
2018-09-29T08:04:58.096Z,83.10
2018-09-29T08:07:33.770Z,84.70
2018-09-29T08:10:09.933Z,86.00
2018-09-29T08:12:45.923Z,86.60
2018-09-29T08:15:21.959Z,89.60
2018-09-29T08:17:57.859Z,90.40
2018-09-29T08:20:33.756Z,91.40
2018-09-29T08:23:09.263Z,92.20
2018-09-29T08:25:45.099Z,92.10
2018-09-29T08:28:20.407Z,92.70
2018-09-29T08:30:56.280Z,92.90
2018-09-29T08:33:32.047Z,92.70
2018-09-29T08:36:08.495Z,93.40
2018-09-29T08:38:44.022Z,93.40
2018-09-29T08:41:20.223Z,93.70
2018-09-29T08:43:55.681Z,93.30
2018-09-29T08:46:31.450Z,93.50
2018-09-29T08:49:07.633Z,92.80
2018-09-29T08:51:43.870Z,92.50
2018-09-29T08:54:19.356Z,92.70
2018-09-29T08:56:54.852Z,92.70
2018-09-29T08:59:30.813Z,93.10
2018-09-29T09:02:06.913Z,92.60
2018-09-29T09:04:42.312Z,92.60
2018-09-29T09:07:18.247Z,92.70
2018-09-29T09:09:54.365Z,92.40
2018-09-29T09:12:31.333Z,92.60
2018-09-29T09:15:07.530Z,92.60
2018-09-29T09:17:43.373Z,93.10
2018-09-29T09:20:19.891Z,93.30
2018-09-29T09:22:56.619Z,93.80
2018-09-29T09:25:32.135Z,93.80
2018-09-29T09:28:08.183Z,93.70
2018-09-29T09:30:43.947Z,94.00
2018-09-29T09:33:19.234Z,94.20
2018-09-29T09:35:55.324Z,93.70
2018-09-29T09:38:31.171Z,93.90
2018-09-29T09:41:07.394Z,94.20
2018-09-29T09:43:43.287Z,94.20
2018-09-29T09:46:18.618Z,93.90
2018-09-29T09:48:54.504Z,93.70
2018-09-29T09:51:30.080Z,94.20
2018-09-29T09:54:05.407Z,93.80
2018-09-29T09:56:41.229Z,94.50
2018-09-29T09:59:16.672Z,94.60
2018-09-29T10:01:57.720Z,94.50
2018-09-29T10:04:33.355Z,94.70
2018-09-29T10:07:08.754Z,94.40
2018-09-29T10:09:44.522Z,94.30
2018-09-29T10:12:20.576Z,94.20
2018-09-29T10:14:56.321Z,94.50
2018-09-29T10:17:32.139Z,93.70
2018-09-29T10:20:08.866Z,94.00
2018-09-29T10:22:45.126Z,94.30
2018-09-29T10:25:22.113Z,94.60
2018-09-29T10:28:01.350Z,95.00
2018-09-29T10:30:37.253Z,95.60
2018-09-29T10:33:13.163Z,96.10
2018-09-29T10:35:49.625Z,96.20
2018-09-29T10:38:24.818Z,96.50
2018-09-29T10:41:00.633Z,96.30
2018-09-29T10:43:37.748Z,96.80
2018-09-29T10:46:14.120Z,97.10
2018-09-29T10:48:50.596Z,97.30
2018-09-29T10:51:26.565Z,98.20
2018-09-29T10:54:02.133Z,96.90
2018-09-29T10:56:38.173Z,97.50
2018-09-29T10:59:13.633Z,96.50
2018-09-29T11:01:49.537Z,96.20
2018-09-29T11:04:25.111Z,96.20
2018-09-29T11:07:01.054Z,96.50
2018-09-29T11:09:36.278Z,96.90
2018-09-29T11:12:12.438Z,96.80
2018-09-29T11:14:47.941Z,97.60
2018-09-29T11:17:23.752Z,98.60
2018-09-29T11:20:00.930Z,98.80
2018-09-29T11:22:36.908Z,98.10
2018-09-29T11:25:12.822Z,98.90
2018-09-29T11:27:50.375Z,99.20
2018-09-29T11:30:31.309Z,99.40
2018-09-29T11:33:10.856Z,98.80
2018-09-29T11:35:49.351Z,99.20
2018-09-29T11:38:28.108Z,99.80
2018-09-29T11:41:05.922Z,99.70
2018-09-29T11:43:45.571Z,99.90
2018-09-29T11:46:23.062Z,99.60
2018-09-29T11:48:59.252Z,99.70
2018-09-29T11:51:37.386Z,99.40
2018-09-29T11:54:12.977Z,99.90
2018-09-29T11:56:50.572Z,99.90
2018-09-29T11:59:27.440Z,99.90
2018-09-29T12:02:03.464Z,99.90
2018-09-29T12:04:39.002Z,99.90
2018-09-29T12:07:14.864Z,99.90
2018-09-29T12:09:50.601Z,99.90
2018-09-29T12:12:26.277Z,97.70
2018-09-29T12:15:02.839Z,95.50
2018-09-29T12:17:38.544Z,93.10
2018-09-29T12:20:14.509Z,92.40
2018-09-29T12:22:49.893Z,92.50
2018-09-29T12:25:26.872Z,91.10
2018-09-29T12:28:02.233Z,88.10
2018-09-29T12:30:38.802Z,87.90
2018-09-29T12:33:14.976Z,87.70
2018-09-29T12:35:50.678Z,86.20
2018-09-29T12:38:26.444Z,86.40
2018-09-29T12:41:03.628Z,87.50
2018-09-29T12:43:40.797Z,88.70
2018-09-29T12:46:20.569Z,90.40
2018-09-29T12:48:56.066Z,90.20
2018-09-29T12:51:31.787Z,90.20
2018-09-29T12:54:07.569Z,89.50
2018-09-29T12:56:49.108Z,90.10
2018-09-29T12:59:27.906Z,90.70
2018-09-29T13:02:06.854Z,90.80
2018-09-29T13:04:48.592Z,91.10
2018-09-29T13:07:24.765Z,90.90
2018-09-29T13:10:00.784Z,90.80
2018-09-29T13:12:36.949Z,91.30
2018-09-29T13:15:12.831Z,92.00
2018-09-29T13:17:49.646Z,91.70
2018-09-29T13:20:26.202Z,92.10
2018-09-29T13:23:02.155Z,92.10
2018-09-29T13:25:38.236Z,92.20
2018-09-29T13:28:13.908Z,91.80
2018-09-29T13:30:49.573Z,92.40
2018-09-29T13:33:25.392Z,92.10
2018-09-29T13:36:01.362Z,92.40
2018-09-29T13:38:37.771Z,93.00
2018-09-29T13:41:13.649Z,92.60
2018-09-29T13:43:51.238Z,94.70
2018-09-29T13:46:27.403Z,94.80
2018-09-29T13:49:03.741Z,94.90
2018-09-29T13:51:39.807Z,95.90
2018-09-29T13:54:15.360Z,96.90
2018-09-29T13:56:51.165Z,97.50
2018-09-29T13:59:26.825Z,97.70
2018-09-29T14:02:03.106Z,97.70
2018-09-29T14:04:38.629Z,97.00
2018-09-29T14:07:14.327Z,97.70
2018-09-29T14:09:49.947Z,99.30
2018-09-29T14:12:25.610Z,99.90
2018-09-29T14:15:01.294Z,99.90
2018-09-29T14:17:36.753Z,99.90
2018-09-29T14:20:12.993Z,99.90
2018-09-29T14:22:48.492Z,99.90
2018-09-29T14:25:24.258Z,99.90
2018-09-29T14:28:00.117Z,99.90
2018-09-29T14:30:35.889Z,99.90
2018-09-29T14:33:11.488Z,99.90
2018-09-29T14:35:47.375Z,99.90
2018-09-29T14:38:23.024Z,99.90
2018-09-29T14:40:58.471Z,99.90
2018-09-29T14:43:34.122Z,99.90
2018-09-29T14:46:09.960Z,99.90
2018-09-29T14:48:45.658Z,99.90
2018-09-29T14:51:21.211Z,99.90
2018-09-29T14:53:56.850Z,99.90
2018-09-29T14:56:32.915Z,99.90
2018-09-29T14:59:08.565Z,99.90
2018-09-29T15:01:44.447Z,99.90
2018-09-29T15:04:20.775Z,99.90
2018-09-29T15:06:56.784Z,99.90
2018-09-29T15:09:32.915Z,99.90
2018-09-29T15:12:09.496Z,99.90
2018-09-29T15:14:45.448Z,99.90
2018-09-29T15:17:21.282Z,99.90
2018-09-29T15:19:56.817Z,99.90
2018-09-29T15:22:32.614Z,99.90
2018-09-29T15:25:08.172Z,99.90
2018-09-29T15:27:43.834Z,99.90
2018-09-29T15:30:19.916Z,99.90
2018-09-29T15:32:55.230Z,99.90
2018-09-29T15:35:30.905Z,99.90
2018-09-29T15:38:06.698Z,99.90
2018-09-29T15:40:42.564Z,99.90
2018-09-29T15:43:17.957Z,99.90
2018-09-29T15:45:53.348Z,99.90
2018-09-29T15:48:29.304Z,99.90
2018-09-29T15:51:04.805Z,99.90
2018-09-29T15:53:40.722Z,99.90
2018-09-29T15:56:16.231Z,99.90
2018-09-29T15:58:52.865Z,99.90
2018-09-29T16:01:28.744Z,99.90
2018-09-29T16:04:04.597Z,99.90
2018-09-29T16:06:39.957Z,99.90
2018-09-29T16:09:15.720Z,99.90
2018-09-29T16:11:51.386Z,99.90
2018-09-29T16:14:27.188Z,99.90
2018-09-29T16:17:02.834Z,99.90
2018-09-29T16:19:39.257Z,99.90
2018-09-29T16:22:15.485Z,99.90
2018-09-29T16:24:51.089Z,99.90
2018-09-29T16:27:26.753Z,99.90
2018-09-29T16:30:02.522Z,99.90
2018-09-29T16:32:38.839Z,99.90
2018-09-29T16:35:14.851Z,99.90
2018-09-29T16:37:50.038Z,99.90
2018-09-29T16:40:26.113Z,99.90
2018-09-29T16:43:01.881Z,99.90
2018-09-29T16:45:37.433Z,99.90
2018-09-29T16:48:13.018Z,99.90
2018-09-29T16:50:48.874Z,99.90
2018-09-29T16:53:24.465Z,99.90
2018-09-29T16:56:00.262Z,99.90
2018-09-29T16:58:35.786Z,99.90
2018-09-29T17:01:11.456Z,99.90
2018-09-29T17:03:48.193Z,99.90
2018-09-29T17:06:24.048Z,99.90
2018-09-29T17:09:00.191Z,99.90
2018-09-29T17:11:35.876Z,99.90
2018-09-29T17:14:11.647Z,99.90
2018-09-29T17:16:47.171Z,99.90
2018-09-29T17:19:22.767Z,99.90
2018-09-29T17:22:00.462Z,99.90
2018-09-29T17:24:36.345Z,99.90
2018-09-29T17:29:47.729Z,99.90
2018-09-29T17:37:34.734Z,99.90
2018-09-29T17:45:21.325Z,99.90
2018-09-29T17:50:33.054Z,99.90
2018-09-29T17:53:08.416Z,99.90
2018-09-29T17:55:44.394Z,99.90
2018-09-29T17:58:19.734Z,99.90
2018-09-29T18:00:55.413Z,99.90
2018-09-29T18:03:43.384Z,99.90
2018-09-29T18:08:58.741Z,99.90
2018-09-29T18:11:34.537Z,99.90
2018-09-29T18:14:18.441Z,99.90
2018-09-29T18:19:35.227Z,99.90
2018-09-29T18:22:13.820Z,99.90
2018-09-29T18:24:50.607Z,99.90
2018-09-29T18:27:27.302Z,99.90
2018-09-29T18:35:19.337Z,99.90
2018-09-29T18:37:57.521Z,99.90
2018-09-29T18:40:33.856Z,99.90
2018-09-29T18:43:11.648Z,99.90
2018-09-29T18:45:48.549Z,99.90
2018-09-29T18:48:25.625Z,99.90
2018-09-29T18:51:03.399Z,99.90
2018-09-29T18:53:40.839Z,99.90
2018-09-29T18:56:18.933Z,99.90
2018-09-29T18:58:57.825Z,99.90
2018-09-29T19:01:35.468Z,99.90
2018-09-29T19:04:13.812Z,99.90
2018-09-29T19:06:51.439Z,99.90
2018-09-29T19:09:29.856Z,99.90
2018-09-29T19:12:06.426Z,99.90
2018-09-29T19:14:42.765Z,99.90
2018-09-29T19:19:56.633Z,99.90
2018-09-29T19:22:34.235Z,99.90
2018-09-29T19:25:12.509Z,99.90
2018-09-29T19:27:50.269Z,99.90
2018-09-29T19:33:05.795Z,99.90
2018-09-29T19:35:42.289Z,99.90
2018-09-29T19:38:18.721Z,99.90
2018-09-29T19:40:57.210Z,99.90
2018-09-29T19:43:35.422Z,99.90
2018-09-29T19:46:13.136Z,99.90
2018-09-29T19:48:49.805Z,99.90
2018-09-29T19:51:26.173Z,99.90
2018-09-29T19:54:03.433Z,99.90
2018-09-29T19:56:39.641Z,99.90
2018-09-29T19:59:19.141Z,99.90
2018-09-29T20:01:57.322Z,99.90
2018-09-29T20:04:36.446Z,99.90
2018-09-29T20:09:48.489Z,99.90
2018-09-29T20:12:24.869Z,99.90
2018-09-29T20:15:01.421Z,99.90
2018-09-29T20:17:40.338Z,99.90
2018-09-29T20:20:17.613Z,99.90
2018-09-29T20:28:06.442Z,99.90
2018-09-29T20:30:43.744Z,99.90
2018-09-29T20:33:20.708Z,99.90
2018-09-29T20:35:57.460Z,99.90
2018-09-29T20:38:36.513Z,99.90
2018-09-29T20:41:14.744Z,99.90
2018-09-29T20:43:51.500Z,99.90
2018-09-29T20:46:29.920Z,99.90
2018-09-29T20:49:07.375Z,99.90
2018-09-29T20:51:44.379Z,99.90
2018-09-29T20:54:21.529Z,99.90
2018-09-29T20:57:00.661Z,99.90
2018-09-29T20:59:37.665Z,99.90
2018-09-29T21:02:13.866Z,99.90
2018-09-29T21:07:27.185Z,99.90
2018-09-29T21:10:03.796Z,99.90
2018-09-29T21:12:40.641Z,99.90
2018-09-29T21:17:56.513Z,99.90
2018-09-29T21:20:32.793Z,99.90
2018-09-29T21:25:45.797Z,99.90
2018-09-29T21:28:23.441Z,99.90
2018-09-29T21:31:01.521Z,99.70
2018-09-29T21:33:39.784Z,99.60
2018-09-29T21:36:16.324Z,99.60
2018-09-29T21:38:53.350Z,99.30
2018-09-29T21:41:30.745Z,99.20
2018-09-29T21:44:07.748Z,99.20
2018-09-29T21:46:44.753Z,99.20
2018-09-29T21:49:23.211Z,99.50
2018-09-29T21:54:36.048Z,99.70
2018-09-29T21:57:12.097Z,99.90
2018-09-29T21:59:49.672Z,99.90
2018-09-29T22:02:26.563Z,99.90
2018-09-29T22:05:03.881Z,99.90
2018-09-29T22:07:40.586Z,99.90
2018-09-29T22:12:55.345Z,99.90
2018-09-29T22:15:32.622Z,99.90
2018-09-29T22:18:08.620Z,99.90
2018-09-29T22:20:46.101Z,99.90
2018-09-29T22:23:24.479Z,99.90
2018-09-29T22:26:03.476Z,99.90
2018-09-29T22:28:41.265Z,99.90
2018-09-29T22:31:19.328Z,99.90
2018-09-29T22:33:58.953Z,99.90
2018-09-29T22:36:35.827Z,99.90
2018-09-29T22:39:13.408Z,99.80
2018-09-29T22:41:51.577Z,99.70
2018-09-29T22:44:29.016Z,99.60
2018-09-29T22:47:06.480Z,99.30
2018-09-29T22:52:20.282Z,99.20
2018-09-29T22:54:56.032Z,99.40
2018-09-29T22:57:33.348Z,99.20
2018-09-29T23:00:09.701Z,99.70
2018-09-29T23:02:48.013Z,99.10
2018-09-29T23:05:25.585Z,99.40
2018-09-29T23:08:02.015Z,99.30
2018-09-29T23:10:40.333Z,99.20
2018-09-29T23:13:18.341Z,99.10
2018-09-29T23:15:56.494Z,99.00
2018-09-29T23:18:33.248Z,98.90
2018-09-29T23:21:10.891Z,99.10
2018-09-29T23:23:48.472Z,99.20
2018-09-29T23:26:25.238Z,98.90
2018-09-29T23:29:05.426Z,99.00
2018-09-29T23:31:42.015Z,98.80
2018-09-29T23:34:19.237Z,99.00
2018-09-29T23:36:57.148Z,98.90
2018-09-29T23:39:33.948Z,98.90
2018-09-29T23:42:12.404Z,99.10
2018-09-29T23:47:25.676Z,99.10
2018-09-29T23:50:03.855Z,99.10
2018-09-29T23:52:42.413Z,99.30
2018-09-29T23:55:21.389Z,99.20
2018-09-29T23:57:57.697Z,99.10
